Time;durP1;ratioP1;P1;durP2;ratioP2;P2;SDS_P1;SDS_P2;PMS_P1;PMS_P2;Temp;Humidity;BMP_temperature;BMP_pressure;BME280_temperature;BME280_humidity;BME280_pressure;Samples;Min_cycle;Max_cycle;Signal;HPM_P1;HPM_P2
2022/01/31 00:00:32;;;;;;;8.82;3.65;;;;;;;2.68;47.75;99053.91;5085618;28;20045;-66
2022/01/31 00:03:05;;;;;;;6.90;3.25;;;;;;;3.84;47.57;99241.75;5085532;28;20107;-65
2022/01/31 00:05:37;;;;;;;4.93;2.60;;;;;;;3.51;47.97;99168.47;5086277;28;20037;-66
2022/01/31 00:08:11;;;;;;;6.57;3.33;;;;;;;3.87;47.80;99206.72;5085276;28;20246;-66
2022/01/31 00:10:44;;;;;;;6.37;3.03;;;;;;;3.84;47.37;99221.66;5086189;28;20089;-67
2022/01/31 00:13:21;;;;;;;6.65;2.60;;;;;;;3.82;47.67;99223.44;5086361;28;20063;-67
2022/01/31 00:15:57;;;;;;;9.73;3.20;;;;;;;3.27;47.85;99119.41;5069686;28;20048;-67
2022/01/31 00:18:30;;;;;;;8.00;3.55;;;;;;;3.56;47.88;99164.84;5084914;28;20056;-67
2022/01/31 00:21:02;;;;;;;14.00;5.05;;;;;;;3.84;47.85;99218.16;5086102;28;20097;-67
2022/01/31 00:23:37;;;;;;;6.43;2.33;;;;;;;3.79;47.41;99227.94;5085967;28;20094;-67
2022/01/31 00:26:09;;;;;;;7.43;3.25;;;;;;;3.82;47.25;99206.88;5086014;28;20097;-67
2022/01/31 00:28:41;;;;;;;8.43;2.90;;;;;;;3.82;46.92;99212.09;5086034;28;20036;-67
2022/01/31 00:31:14;;;;;;;6.22;2.70;;;;;;;3.75;46.90;99213.19;5085020;28;20042;-67
2022/01/31 00:33:46;;;;;;;8.52;2.50;;;;;;;3.75;47.01;99205.34;5085997;28;20052;-67
2022/01/31 00:36:18;;;;;;;6.72;2.78;;;;;;;3.77;47.00;99201.75;5085682;28;20040;-67
2022/01/31 00:38:52;;;;;;;8.85;3.00;;;;;;;3.05;47.23;99118.31;5085726;28;20098;-68
2022/01/31 00:41:24;;;;;;;11.90;4.05;;;;;;;3.71;46.88;99170.50;5085041;28;20056;-66
2022/01/31 00:44:01;;;;;;;10.55;3.40;;;;;;;3.74;47.02;99194.00;5085101;28;20203;-66
2022/01/31 00:46:40;;;;;;;6.63;3.15;;;;;;;3.68;47.11;99193.31;5085913;28;20260;-66
2022/01/31 00:49:22;;;;;;;4.50;2.45;;;;;;;3.64;47.62;99189.06;5085812;28;20041;-66
2022/01/31 00:51:55;;;;;;;10.93;3.15;;;;;;;3.56;48.05;99193.69;5084657;28;20047;-66
2022/01/31 00:54:29;;;;;;;8.88;2.60;;;;;;;3.53;48.23;99192.00;5084674;28;20096;-67
2022/01/31 00:57:02;;;;;;;7.90;2.58;;;;;;;3.48;48.37;99191.28;5084752;28;20040;-66
2022/01/31 00:59:34;;;;;;;5.10;2.30;;;;;;;3.00;48.35;99105.34;5085078;28;20115;-66
2022/01/31 01:02:06;;;;;;;6.80;2.30;;;;;;;3.46;48.79;99207.03;5085758;28;20041;-66
2022/01/31 01:04:40;;;;;;;8.48;2.50;;;;;;;3.39;48.92;99194.16;5088276;28;20040;-66
2022/01/31 01:07:14;;;;;;;9.18;3.08;;;;;;;3.36;48.74;99237.03;5089098;28;20058;-66
2022/01/31 01:09:48;;;;;;;8.30;3.67;;;;;;;3.34;48.90;99191.69;5088872;28;20078;-66
2022/01/31 01:12:20;;;;;;;8.48;3.22;;;;;;;3.36;48.98;99208.22;5088990;28;20292;-67
2022/01/31 01:14:53;;;;;;;8.43;3.03;;;;;;;2.85;48.97;99122.34;5088905;28;20043;-66
2022/01/31 01:17:24;;;;;;;7.70;2.25;;;;;;;3.28;49.20;99188.38;5089223;28;20044;-66
2022/01/31 01:19:54;;;;;;;7.38;2.97;;;;;;;3.26;49.10;99179.69;5088806;28;20104;-67
2022/01/31 01:22:24;;;;;;;9.23;3.15;;;;;;;3.27;49.18;99176.19;5089065;28;20090;-67
2022/01/31 01:24:55;;;;;;;5.25;2.85;;;;;;;3.21;49.40;99182.44;5088920;28;20060;-68
2022/01/31 01:27:24;;;;;;;9.88;3.47;;;;;;;3.20;49.32;99183.34;5089571;28;20207;-67
2022/01/31 01:29:55;;;;;;;8.55;3.17;;;;;;;3.18;49.48;99157.19;5089036;28;20048;-67
2022/01/31 01:32:27;;;;;;;7.13;2.95;;;;;;;1.73;49.40;98935.38;5071383;28;20040;-68
2022/01/31 01:34:59;;;;;;;11.55;3.30;;;;;;;3.17;49.41;99141.53;5089051;28;20177;-67
2022/01/31 01:37:29;;;;;;;7.18;2.78;;;;;;;3.17;49.34;99145.00;5088951;28;20048;-67
2022/01/31 01:40:01;;;;;;;5.82;2.17;;;;;;;2.73;49.45;99111.38;5088031;28;20036;-67
2022/01/31 01:42:30;;;;;;;9.75;3.25;;;;;;;1.71;49.37;99065.19;5088315;28;20082;-67
2022/01/31 01:45:00;;;;;;;5.93;2.30;;;;;;;3.03;49.44;99138.44;5089031;28;20059;-68
2022/01/31 01:47:30;;;;;;;8.05;3.08;;;;;;;2.99;49.67;99168.22;5071218;28;20067;-66
2022/01/31 01:50:00;;;;;;;9.82;2.88;;;;;;;2.97;49.78;99138.63;5088648;28;20040;-65
2022/01/31 01:52:31;;;;;;;11.75;3.38;;;;;;;2.70;49.95;99098.38;5088780;28;20089;-67
2022/01/31 01:55:02;;;;;;;6.68;2.53;;;;;;;2.94;49.58;99149.19;5071010;28;20040;-66
2022/01/31 01:57:31;;;;;;;7.38;2.85;;;;;;;2.62;49.64;99095.97;5088851;28;20086;-67
2022/01/31 02:00:01;;;;;;;11.10;2.80;;;;;;;2.92;49.69;99130.91;5087932;28;20075;-66
2022/01/31 02:02:31;;;;;;;7.97;2.80;;;;;;;2.82;49.95;99126.81;5088629;28;20040;-67
2022/01/31 02:05:01;;;;;;;9.32;3.63;;;;;;;2.84;49.75;99123.25;5071019;28;20044;-67
2022/01/31 02:07:32;;;;;;;8.95;3.75;;;;;;;2.49;49.79;99060.56;5088287;28;20102;-66
2022/01/31 02:10:06;;;;;;;8.50;2.45;;;;;;;2.85;49.91;99113.66;5088219;28;20063;-67
2022/01/31 02:12:40;;;;;;;7.78;3.10;;;;;;;2.79;50.01;99129.50;5088319;28;20292;-67
2022/01/31 02:15:13;;;;;;;8.38;5.13;;;;;;;2.81;49.86;99114.63;5087116;28;20059;-67
2022/01/31 02:17:45;;;;;;;6.15;3.08;;;;;;;2.80;49.98;99105.06;5070468;28;20063;-67
2022/01/31 02:20:18;;;;;;;5.78;2.85;;;;;;;2.47;49.77;99038.81;5088443;28;20041;-67
2022/01/31 02:22:52;;;;;;;9.35;3.05;;;;;;;2.22;50.04;99000.25;5070457;28;20048;-67
2022/01/31 02:25:25;;;;;;;7.88;2.70;;;;;;;2.86;49.82;99117.97;5087255;28;20352;-67
2022/01/31 02:27:58;;;;;;;9.32;2.55;;;;;;;2.85;49.71;99098.81;5087294;28;20306;-67
2022/01/31 02:30:30;;;;;;;9.48;3.15;;;;;;;2.84;49.59;99101.47;5087791;28;20041;-67
2022/01/31 02:33:03;;;;;;;7.43;3.10;;;;;;;2.87;49.51;99101.38;5088102;28;20040;-67
2022/01/31 02:35:36;;;;;;;7.63;2.85;;;;;;;2.84;49.28;99091.84;5088094;28;20040;-67
2022/01/31 02:38:11;;;;;;;;;;;;;;;2.79;49.60;99092.88;5087468;28;20050;-67
2022/01/31 02:40:45;;;;;;;5.97;2.10;;;;;;;2.79;49.30;99091.13;5086946;28;19923;-67
2022/01/31 02:43:20;;;;;;;7.40;3.00;;;;;;;2.83;49.49;99076.19;5087142;28;20059;-67
2022/01/31 02:45:53;;;;;;;7.82;2.97;;;;;;;2.69;49.38;99052.16;5087063;28;20300;-67
2022/01/31 02:48:27;;;;;;;5.70;2.63;;;;;;;2.84;49.31;99084.00;5087555;28;20040;-67
2022/01/31 02:51:00;;;;;;;7.90;3.30;;;;;;;2.87;49.17;99070.81;5086899;28;20048;-67
2022/01/31 02:53:40;;;;;;;6.22;3.05;;;;;;;2.92;49.13;99068.06;5087300;28;20208;-68
2022/01/31 02:56:13;;;;;;;7.60;3.22;;;;;;;2.91;49.12;99058.50;5087523;28;20223;-67
2022/01/31 02:58:45;;;;;;;7.28;2.95;;;;;;;2.90;49.18;99056.78;5086919;28;20044;-67
2022/01/31 03:01:17;;;;;;;9.73;3.00;;;;;;;2.88;49.32;99048.13;5086844;28;20044;-66
2022/01/31 03:03:50;;;;;;;6.55;3.55;;;;;;;2.92;49.28;99049.75;5087544;28;20067;-67
2022/01/31 03:06:22;;;;;;;7.28;2.72;;;;;;;2.93;48.91;99048.00;5086824;28;20052;-67
2022/01/31 03:08:55;;;;;;;7.95;3.05;;;;;;;2.63;49.01;98982.56;5086564;28;20063;-67
2022/01/31 03:11:27;;;;;;;7.88;4.53;;;;;;;2.94;48.95;99013.91;5087037;28;20048;-67
2022/01/31 03:14:00;;;;;;;3.65;2.47;;;;;;;2.69;48.76;98973.66;5069412;28;20041;-67
2022/01/31 03:16:34;;;;;;;5.70;2.90;;;;;;;2.94;49.03;99027.00;5086730;28;20041;-67
2022/01/31 03:19:06;;;;;;;5.78;3.10;;;;;;;2.91;48.94;99040.19;5086965;28;20094;-66
2022/01/31 03:21:39;;;;;;;8.00;3.20;;;;;;;2.88;49.04;99030.66;5086865;28;20094;-68
2022/01/31 03:24:13;;;;;;;7.78;3.13;;;;;;;2.93;48.93;99016.56;5087070;28;20086;-67
2022/01/31 03:26:45;;;;;;;10.60;3.80;;;;;;;2.86;48.99;99005.44;5086789;28;20041;-67
2022/01/31 03:29:17;;;;;;;8.07;2.92;;;;;;;2.87;48.81;99009.75;5086739;28;20044;-67
2022/01/31 03:31:50;;;;;;;13.27;3.60;;;;;;;2.58;48.90;98944.34;5086859;28;20037;-67
2022/01/31 03:34:22;;;;;;;6.85;2.47;;;;;;;2.83;48.93;98993.28;5086919;28;20359;-67
2022/01/31 03:36:54;;;;;;;9.07;2.60;;;;;;;2.59;49.03;98956.53;5086008;28;20036;-67
2022/01/31 03:39:28;;;;;;;7.05;2.92;;;;;;;2.80;48.99;98977.69;5086818;28;20066;-67
2022/01/31 03:42:00;;;;;;;9.38;4.03;;;;;;;2.79;49.16;98986.44;5086422;28;20097;-67
2022/01/31 03:44:32;;;;;;;10.50;3.60;;;;;;;2.76;49.38;98983.91;5086687;28;20066;-67
2022/01/31 03:47:04;;;;;;;7.40;2.63;;;;;;;2.75;49.22;98971.72;5086329;28;20082;-67
2022/01/31 03:49:37;;;;;;;6.00;2.38;;;;;;;2.64;49.02;98958.09;5086336;28;20235;-67
2022/01/31 03:52:09;;;;;;;9.13;2.90;;;;;;;2.49;49.27;98922.78;5085422;28;20086;-67
2022/01/31 03:54:44;;;;;;;4.78;2.30;;;;;;;2.76;49.59;98959.50;5086214;28;20090;-67
2022/01/31 03:57:16;;;;;;;5.78;2.35;;;;;;;2.73;49.53;98957.81;5068657;28;20044;-67
2022/01/31 03:59:48;;;;;;;7.03;2.90;;;;;;;2.71;49.99;98967.47;5086130;28;20060;-67
2022/01/31 04:02:20;;;;;;;7.68;2.10;;;;;;;2.39;50.14;98937.03;5068478;28;20048;-67
2022/01/31 04:04:52;;;;;;;7.53;3.08;;;;;;;2.68;50.21;98966.72;5086097;28;20346;-66
2022/01/31 04:07:25;;;;;;;5.45;2.60;;;;;;;2.66;50.99;98964.16;5086073;28;20093;-67
2022/01/31 04:09:58;;;;;;;6.30;3.28;;;;;;;2.66;50.77;98966.75;5085242;28;20078;-67
2022/01/31 04:12:30;;;;;;;8.20;3.13;;;;;;;2.64;51.23;98952.88;5085829;28;20045;-66
2022/01/31 04:15:03;;;;;;;6.45;3.05;;;;;;;2.65;51.25;98954.59;5085847;28;20051;-67
2022/01/31 04:17:33;;;;;;;7.55;2.38;;;;;;;2.62;52.04;98936.34;5085650;28;20063;-67
2022/01/31 04:20:04;;;;;;;5.88;2.55;;;;;;;1.94;52.04;98823.31;5086079;28;20116;-67
2022/01/31 04:22:36;;;;;;;6.75;2.80;;;;;;;2.60;51.91;98932.06;5085108;28;20103;-68
2022/01/31 04:25:27;;;;;;;5.72;2.80;;;;;;;2.60;52.25;98932.94;5085830;28;20111;-66
2022/01/31 04:28:04;;;;;;;7.95;3.03;;;;;;;2.63;51.81;98926.75;5086000;28;20304;-67
2022/01/31 04:30:45;;;;;;;6.30;2.83;;;;;;;2.61;52.32;98923.31;5084965;28;20331;-67
2022/01/31 04:33:17;;;;;;;9.18;2.70;;;;;;;2.62;51.92;98904.97;5085661;28;20044;-67
2022/01/31 04:35:50;;;;;;;7.82;2.28;;;;;;;2.63;52.79;98906.69;5085646;28;20288;-67
2022/01/31 04:38:23;;;;;;;7.20;2.40;;;;;;;2.64;52.78;98903.16;5085094;28;20045;-67
2022/01/31 04:40:57;;;;;;;6.47;2.92;;;;;;;2.64;52.39;98903.16;5085010;28;20048;-67
2022/01/31 04:43:29;;;;;;;14.35;3.13;;;;;;;2.65;52.67;98893.53;5085766;28;20154;-67
2022/01/31 04:46:04;;;;;;;5.72;3.53;;;;;;;2.63;52.97;98885.75;5085443;28;20086;-67
2022/01/31 04:48:36;;;;;;;6.65;3.22;;;;;;;2.64;53.10;98877.00;5085319;28;20041;-67
2022/01/31 04:51:08;;;;;;;6.03;2.83;;;;;;;2.63;53.56;98862.19;5085403;28;20041;-67
2022/01/31 04:53:40;;;;;;;6.03;2.40;;;;;;;2.67;53.17;98866.44;5084810;28;20040;-67
2022/01/31 04:56:14;;;;;;;6.65;2.88;;;;;;;2.63;53.79;98854.34;5085665;28;20089;-68
2022/01/31 04:58:46;;;;;;;6.32;2.28;;;;;;;2.64;53.14;98829.03;5085385;28;20138;-67
2022/01/31 05:01:18;;;;;;;5.35;2.20;;;;;;;2.72;53.15;98838.38;5085297;28;20090;-67
2022/01/31 05:03:51;;;;;;;6.97;3.03;;;;;;;2.70;53.47;98837.56;5085545;28;20052;-67
2022/01/31 05:06:29;;;;;;;10.43;4.05;;;;;;;2.70;53.87;98819.25;5085261;28;20041;-67
2022/01/31 05:09:02;;;;;;;6.53;3.05;;;;;;;2.05;53.59;98703.63;5085086;28;20280;-67
2022/01/31 05:11:36;;;;;;;9.15;2.67;;;;;;;2.69;54.15;98803.59;5084731;28;20048;-67
2022/01/31 05:14:08;;;;;;;7.35;2.75;;;;;;;2.71;53.50;98789.53;5085108;28;20040;-67
2022/01/31 05:16:40;;;;;;;7.90;3.38;;;;;;;2.73;53.53;98782.50;5084619;28;20041;-67
2022/01/31 05:19:12;;;;;;;7.47;2.72;;;;;;;2.74;53.36;98765.91;5084982;28;20040;-67
2022/01/31 05:21:44;;;;;;;6.10;2.33;;;;;;;2.72;54.01;98761.63;5085373;28;20086;-67
2022/01/31 05:24:16;;;;;;;5.43;2.67;;;;;;;2.70;54.36;98758.19;5085184;28;20041;-67
2022/01/31 05:26:51;;;;;;;6.28;3.50;;;;;;;2.68;54.22;98753.03;5085270;28;20040;-67
2022/01/31 05:29:23;;;;;;;12.27;4.00;;;;;;;2.69;53.92;98751.25;5084328;28;20288;-66
2022/01/31 05:31:55;;;;;;;9.95;2.85;;;;;;;2.72;53.61;98744.16;5085200;28;20040;-67
2022/01/31 05:34:27;;;;;;;5.70;2.40;;;;;;;2.71;54.00;98737.22;5084995;28;20037;-67
2022/01/31 05:37:00;;;;;;;4.43;2.22;;;;;;;2.70;53.46;98735.50;5084176;28;20048;-67
2022/01/31 05:39:32;;;;;;;7.32;2.83;;;;;;;2.69;53.88;98731.19;5085225;28;20095;-67
2022/01/31 05:42:07;;;;;;;8.40;3.55;;;;;;;2.67;54.05;98740.00;5084940;28;20078;-67
2022/01/31 05:44:39;;;;;;;;;;;;;;;2.60;55.45;98749.78;5085408;28;20220;-67
2022/01/31 05:47:11;;;;;;;5.88;2.90;;;;;;;2.37;54.40;98693.00;5085101;28;20206;-66
2022/01/31 05:49:43;;;;;;;4.38;2.80;;;;;;;2.64;53.99;98730.47;5084936;28;20040;-67
2022/01/31 05:52:16;;;;;;;10.43;3.80;;;;;;;2.03;53.75;98614.81;5088490;28;20041;-67
2022/01/31 05:54:48;;;;;;;4.40;2.28;;;;;;;2.54;53.68;98692.44;5088458;28;20041;-67
2022/01/31 05:57:22;;;;;;;14.52;3.78;;;;;;;2.70;54.01;98711.97;5088714;28;20086;-67
2022/01/31 05:59:54;;;;;;;7.32;2.80;;;;;;;2.70;53.95;98705.88;5088316;28;20040;-67
2022/01/31 06:02:26;;;;;;;6.10;2.72;;;;;;;2.71;53.46;98691.88;5088374;28;20044;-67
2022/01/31 06:04:58;;;;;;;10.25;2.92;;;;;;;2.40;54.29;98631.91;5088595;28;20086;-67
2022/01/31 06:07:31;;;;;;;5.93;3.25;;;;;;;2.63;53.96;98668.59;5088422;28;20044;-68
2022/01/31 06:10:01;;;;;;;8.27;2.88;;;;;;;1.76;53.62;98535.56;5087992;28;20079;-68
2022/01/31 06:12:32;;;;;;;19.10;4.65;;;;;;;1.55;54.10;98481.38;5087273;28;20058;-68
2022/01/31 06:15:01;;;;;;;9.57;4.10;;;;;;;2.55;54.08;98652.31;5087168;28;20043;-67
2022/01/31 06:17:31;;;;;;;5.90;2.70;;;;;;;2.58;54.15;98640.88;5087754;28;20074;-67
2022/01/31 06:20:02;;;;;;;11.52;3.20;;;;;;;2.60;54.04;98628.59;5088333;28;20032;-67
2022/01/31 06:22:31;;;;;;;7.55;3.00;;;;;;;2.67;53.48;98625.72;5088049;28;20050;-67
2022/01/31 06:25:01;;;;;;;7.68;3.50;;;;;;;2.69;53.41;98623.06;5088398;28;20024;-67
2022/01/31 06:27:33;;;;;;;5.55;2.83;;;;;;;2.43;53.86;98572.50;5088100;28;20096;-67
2022/01/31 06:30:02;;;;;;;7.15;3.33;;;;;;;2.68;53.75;98627.44;5087758;28;20082;-67
2022/01/31 06:32:32;;;;;;;7.65;3.53;;;;;;;2.69;54.28;98634.38;5088202;28;20028;-67
2022/01/31 06:35:02;;;;;;;6.03;2.83;;;;;;;1.00;54.00;98357.88;5087697;28;20096;-67
2022/01/31 06:37:32;;;;;;;5.78;2.42;;;;;;;2.70;53.86;98643.94;5087824;28;20220;-67
2022/01/31 06:40:03;;;;;;;6.22;2.50;;;;;;;2.74;54.02;98642.06;5088203;28;20232;-65
2022/01/31 06:42:34;;;;;;;10.32;3.10;;;;;;;2.74;53.81;98640.28;5087740;28;20048;-66
2022/01/31 06:45:03;;;;;;;9.88;2.75;;;;;;;2.76;54.14;98635.88;5087955;28;20078;-66
2022/01/31 06:47:33;;;;;;;4.20;2.65;;;;;;;2.83;53.64;98636.50;5087634;28;20068;-67
2022/01/31 06:50:06;;;;;;;9.52;2.83;;;;;;;2.81;53.72;98627.84;5087633;28;20104;-67
2022/01/31 06:52:38;;;;;;;8.90;2.53;;;;;;;2.83;53.49;98626.88;5087191;28;20044;-67
2022/01/31 06:55:18;;;;;;;9.05;3.70;;;;;;;2.83;53.45;98632.13;5088074;28;20051;-67
2022/01/31 06:57:53;;;;;;;8.80;3.42;;;;;;;2.85;53.47;98632.06;5087476;28;20098;-68
2022/01/31 07:00:25;;;;;;;5.00;2.60;;;;;;;2.87;53.51;98606.69;5087134;28;20086;-68
2022/01/31 07:03:00;;;;;;;9.85;3.22;;;;;;;2.86;53.44;98605.00;5086415;28;20082;-68
2022/01/31 07:05:32;;;;;;;;;;;;;;;2.79;54.54;98606.97;5087559;28;20036;-68
2022/01/31 07:08:04;;;;;;;8.30;3.13;;;;;;;2.80;53.54;98611.28;5087175;28;19974;-67
2022/01/31 07:10:37;;;;;;;7.38;2.58;;;;;;;2.29;53.70;98524.19;5086997;28;20044;-67
2022/01/31 07:13:23;;;;;;;10.27;3.70;;;;;;;2.60;53.56;98566.66;5087073;28;20048;-68
2022/01/31 07:15:55;;;;;;;6.00;2.70;;;;;;;2.51;53.60;98546.06;5087122;28;20097;-67
2022/01/31 07:18:28;;;;;;;7.53;3.88;;;;;;;2.95;53.15;98609.03;5086628;28;20056;-68
2022/01/31 07:21:00;;;;;;;11.38;3.53;;;;;;;2.94;53.36;98616.03;5086644;28;20089;-65
2022/01/31 07:23:51;;;;;;;11.23;4.18;;;;;;;2.94;53.57;98604.72;5086730;28;20182;-66
2022/01/31 07:26:23;;;;;;;9.00;3.97;;;;;;;2.93;53.41;98603.84;5086312;28;20093;-65
2022/01/31 07:28:56;;;;;;;6.82;3.72;;;;;;;2.96;53.30;98616.84;5086192;28;20098;-66
2022/01/31 07:31:29;;;;;;;6.72;2.63;;;;;;;3.00;53.72;98594.03;5086310;28;20090;-66
2022/01/31 07:34:01;;;;;;;8.88;2.83;;;;;;;3.05;53.34;98589.47;5086477;28;20040;-65
2022/01/31 07:36:34;;;;;;;5.72;2.65;;;;;;;3.04;53.52;98595.63;5086089;28;20296;-66
2022/01/31 07:39:06;;;;;;;8.38;3.83;;;;;;;2.76;53.40;98554.75;5085219;28;20044;-67
2022/01/31 07:41:38;;;;;;;5.43;2.80;;;;;;;3.07;53.27;98582.41;5086069;28;20318;-67
2022/01/31 07:44:12;;;;;;;10.00;3.50;;;;;;;3.05;53.75;98587.69;5086110;28;20066;-68
2022/01/31 07:46:45;;;;;;;11.23;4.63;;;;;;;2.84;53.29;98549.22;5085964;28;20086;-67
2022/01/31 07:49:17;;;;;;;10.95;3.33;;;;;;;3.07;53.38;98583.25;5085995;28;20236;-67
2022/01/31 07:51:49;;;;;;;9.05;3.65;;;;;;;2.55;53.32;98500.59;5086018;28;20086;-67
2022/01/31 07:54:21;;;;;;;12.57;3.97;;;;;;;3.06;53.29;98578.09;5084971;28;20183;-67
2022/01/31 07:56:56;;;;;;;8.00;3.55;;;;;;;2.54;53.55;98497.13;5085832;28;20036;-67
2022/01/31 07:59:29;;;;;;;6.97;3.22;;;;;;;3.12;53.46;98570.00;5086182;28;20044;-67
2022/01/31 08:02:02;;;;;;;5.43;3.22;;;;;;;3.10;53.41;98571.81;5086052;28;20040;-67
2022/01/31 08:04:34;;;;;;;9.05;3.53;;;;;;;3.12;53.39;98551.69;5085815;28;20044;-68
2022/01/31 08:07:06;;;;;;;6.82;3.70;;;;;;;3.12;53.37;98549.06;5085636;28;20231;-67
2022/01/31 08:09:38;;;;;;;6.60;3.70;;;;;;;3.13;53.29;98550.75;5085545;28;20044;-67
2022/01/31 08:12:11;;;;;;;10.43;3.58;;;;;;;3.11;53.48;98548.19;5085743;28;20040;-68
2022/01/31 08:14:46;;;;;;;10.75;4.03;;;;;;;3.10;53.46;98536.03;5084625;28;20157;-67
2022/01/31 08:17:18;;;;;;;7.18;3.33;;;;;;;3.15;53.42;98533.22;5085318;28;20060;-68
2022/01/31 08:19:50;;;;;;;7.57;3.70;;;;;;;3.15;53.49;98523.63;5085464;28;20041;-68
2022/01/31 08:22:23;;;;;;;4.78;3.22;;;;;;;3.14;53.48;98531.53;5085363;28;20134;-67
2022/01/31 08:24:55;;;;;;;5.80;2.50;;;;;;;3.17;53.22;98520.94;5085419;28;20044;-68
2022/01/31 08:27:27;;;;;;;6.78;3.25;;;;;;;3.23;53.10;98525.94;5085483;28;20036;-68
2022/01/31 08:30:07;;;;;;;8.40;3.35;;;;;;;3.24;53.19;98518.94;5085433;28;20091;-68
2022/01/31 08:32:45;;;;;;;7.53;4.05;;;;;;;3.24;53.29;98513.69;5085305;28;20247;-67
2022/01/31 08:38:12;;;;;;;11.15;3.53;;;;;;;3.17;53.25;98524.41;5076465;28;20105;-68
2022/01/31 08:40:44;;;;;;;9.60;3.97;;;;;;;2.96;53.52;98483.34;5085331;28;20036;-68
2022/01/31 08:43:17;;;;;;;8.85;3.40;;;;;;;3.22;53.35;98523.38;5085620;28;20044;-67
2022/01/31 08:45:53;;;;;;;10.80;3.08;;;;;;;3.10;53.88;98515.09;5084538;28;20040;-67
2022/01/31 08:48:26;;;;;;;21.45;4.63;;;;;;;2.29;53.46;98409.16;5085445;28;20040;-67
2022/01/31 08:50:59;;;;;;;7.40;3.70;;;;;;;3.19;53.26;98506.03;5085374;28;20082;-67
2022/01/31 08:53:32;;;;;;;8.95;3.88;;;;;;;3.21;53.36;98498.94;5084851;28;20036;-67
2022/01/31 08:56:06;;;;;;;12.68;4.38;;;;;;;3.21;53.72;98491.09;5085224;28;20250;-67
2022/01/31 08:58:44;;;;;;;8.20;4.28;;;;;;;3.19;53.29;98490.31;5085089;28;20231;-67
2022/01/31 09:01:21;;;;;;;6.18;3.20;;;;;;;3.02;54.01;98484.88;5085112;28;20102;-67
2022/01/31 09:04:03;;;;;;;9.13;4.10;;;;;;;3.00;54.13;98476.22;5084777;28;20231;-67
2022/01/31 09:06:36;;;;;;;10.52;4.03;;;;;;;2.93;54.38;98472.13;5084898;28;20063;-67
2022/01/31 09:09:09;;;;;;;7.88;3.78;;;;;;;2.97;53.80;98487.66;5084953;28;20090;-66
2022/01/31 09:11:41;;;;;;;9.93;4.00;;;;;;;2.97;54.03;98465.88;5084017;28;20106;-67
2022/01/31 09:14:14;;;;;;;8.38;4.13;;;;;;;2.98;54.18;98457.09;5083931;28;20041;-66
2022/01/31 09:16:47;;;;;;;7.93;3.92;;;;;;;3.02;53.91;98456.94;5084839;28;20052;-67
2022/01/31 09:19:20;;;;;;;9.48;4.25;;;;;;;3.04;53.68;98447.25;5085099;28;20040;-67
2022/01/31 09:21:52;;;;;;;7.90;3.75;;;;;;;3.06;53.76;98445.44;5084193;28;20165;-67
2022/01/31 09:24:24;;;;;;;11.00;4.20;;;;;;;2.98;53.98;98444.88;5085287;28;20044;-67
2022/01/31 09:26:57;;;;;;;10.43;5.43;;;;;;;2.86;54.40;98432.25;5088670;28;20067;-67
2022/01/31 09:29:29;;;;;;;9.93;4.07;;;;;;;2.57;54.05;98367.97;5088944;28;20082;-67
2022/01/31 09:32:04;;;;;;;9.18;3.95;;;;;;;2.92;54.05;98423.31;5088736;28;20243;-67
2022/01/31 09:34:36;;;;;;;7.97;4.10;;;;;;;2.91;53.84;98417.22;5088684;28;20231;-67
2022/01/31 09:37:09;;;;;;;9.50;3.60;;;;;;;2.92;54.09;98407.63;5088648;28;20246;-67
2022/01/31 09:39:42;;;;;;;7.72;3.35;;;;;;;3.01;53.64;98420.34;5088510;28;20345;-67
2022/01/31 09:42:25;;;;;;;7.93;4.18;;;;;;;3.04;53.81;98404.50;5088422;28;20087;-67
2022/01/31 09:45:12;;;;;;;6.80;3.70;;;;;;;3.08;53.92;98396.47;5088341;28;20247;-67
2022/01/31 09:50:36;;;;;;;15.15;4.93;;;;;;;3.13;53.90;98383.19;5088284;28;20257;-67
2022/01/31 09:53:08;;;;;;;7.60;3.83;;;;;;;3.17;53.64;98385.63;5088617;28;20040;-67
2022/01/31 09:55:41;;;;;;;9.23;4.35;;;;;;;2.82;53.99;98313.78;5088064;28;20098;-67
2022/01/31 09:58:14;;;;;;;12.32;4.32;;;;;;;2.86;53.79;98312.72;5087883;28;20040;-67
2022/01/31 10:00:46;;;;;;;8.75;3.05;;;;;;;3.20;53.58;98359.31;5088049;28;20051;-67
2022/01/31 10:03:19;;;;;;;14.07;4.10;;;;;;;3.28;53.35;98363.38;5087922;28;20041;-67
2022/01/31 10:05:52;;;;;;;6.28;4.10;;;;;;;3.30;53.42;98358.94;5087371;28;20048;-67
2022/01/31 10:08:30;;;;;;;12.63;6.28;;;;;;;3.31;54.02;98334.47;5087946;28;20049;-67
2022/01/31 10:11:10;;;;;;;7.10;4.40;;;;;;;3.31;53.71;98324.84;5087946;28;20090;-67
2022/01/31 10:16:34;;;;;;;9.07;4.13;;;;;;;2.20;53.60;98133.25;5087781;28;20036;-67
2022/01/31 10:19:09;;;;;;;10.77;4.80;;;;;;;3.33;54.13;98325.63;5087743;28;20346;-67
2022/01/31 10:22:10;;;;;;;6.22;3.78;;;;;;;3.12;54.39;98282.00;5087743;28;20041;-67
2022/01/31 10:24:44;;;;;;;10.20;4.70;;;;;;;3.30;53.86;98312.66;5044228;28;20320;-67
2022/01/31 10:27:18;;;;;;;7.15;4.57;;;;;;;3.29;54.24;98308.34;5087899;28;20040;-67
2022/01/31 10:29:53;;;;;;;7.60;3.65;;;;;;;3.30;53.67;98286.47;5087834;28;20048;-67
2022/01/31 10:32:29;;;;;;;9.25;4.97;;;;;;;3.35;53.95;98276.66;5087601;28;20228;-67
2022/01/31 10:35:04;;;;;;;12.95;4.10;;;;;;;3.31;54.22;98274.22;5087364;28;20051;-67
2022/01/31 10:37:39;;;;;;;10.95;4.32;;;;;;;3.38;53.76;98273.91;5086549;28;20082;-67
2022/01/31 10:46:07;;;;;;;8.07;3.97;;;;;;;3.50;54.08;98260.25;5087042;28;19962;-67
2022/01/31 10:54:36;;;;;;;6.47;3.22;;;;;;;3.66;53.94;98249.09;5087418;28;20063;-67
2022/01/31 10:57:15;;;;;;;6.80;3.03;;;;;;;1.81;54.38;97931.94;5087068;28;20044;-67
2022/01/31 10:59:49;;;;;;;5.88;2.72;;;;;;;3.73;53.78;98225.16;5087104;28;20379;-66
2022/01/31 11:02:25;;;;;;;9.05;5.78;;;;;;;3.76;53.67;98213.69;5087124;28;20044;-67
2022/01/31 11:04:57;;;;;;;8.20;3.85;;;;;;;3.80;53.94;98197.75;5087092;28;20307;-67
2022/01/31 11:07:29;;;;;;;5.18;3.47;;;;;;;3.80;54.21;98196.91;5086404;28;20289;-67
2022/01/31 11:09:57;;;;;;;8.00;3.30;;;;;;;3.52;53.92;98165.88;5086716;28;20056;-67
2022/01/31 11:12:27;;;;;;;10.02;3.65;;;;;;;3.88;53.82;98186.06;5087034;28;20100;-67
2022/01/31 11:14:57;;;;;;;8.30;3.22;;;;;;;3.61;53.63;98117.47;5087047;28;20028;-67
2022/01/31 11:17:27;;;;;;;6.80;3.72;;;;;;;3.92;54.22;98162.28;5086823;28;20059;-67
2022/01/31 11:20:00;;;;;;;8.00;3.30;;;;;;;3.96;53.88;98157.72;5087048;28;20064;-67
2022/01/31 11:22:34;;;;;;;7.35;3.85;;;;;;;3.98;54.01;98154.13;5086397;28;20320;-66
2022/01/31 11:25:08;;;;;;;6.00;3.08;;;;;;;4.00;54.03;98148.78;5086836;28;20044;-67
2022/01/31 11:27:41;;;;;;;8.97;3.73;;;;;;;3.69;54.20;98086.50;5085875;28;20289;-67
2022/01/31 11:30:13;;;;;;;8.05;3.13;;;;;;;4.04;53.87;98135.47;5086892;28;20383;-67
2022/01/31 11:32:47;;;;;;;8.65;3.88;;;;;;;2.89;53.86;97989.88;5086345;28;20044;-67
2022/01/31 11:35:20;;;;;;;5.18;3.88;;;;;;;4.11;54.17;98121.13;5086363;28;20251;-67
2022/01/31 11:37:55;;;;;;;10.25;4.18;;;;;;;4.13;53.89;98110.56;5086575;28;20094;-67
2022/01/31 11:40:27;;;;;;;;;;;;;;;4.13;54.93;98097.47;5086722;28;20045;-67
2022/01/31 11:43:02;;;;;;;7.40;3.58;;;;;;;4.17;54.08;98099.88;5085363;28;19977;-67
2022/01/31 11:45:38;;;;;;;8.85;2.80;;;;;;;4.24;54.05;98086.47;5085434;28;20090;-67
2022/01/31 11:48:18;;;;;;;6.93;2.78;;;;;;;4.26;53.93;98069.75;5086365;28;20082;-67
2022/01/31 11:50:53;;;;;;;6.55;2.97;;;;;;;4.03;53.62;98023.66;5086043;28;20041;-67
2022/01/31 11:53:32;;;;;;;6.57;3.70;;;;;;;4.39;54.52;98070.81;5086271;28;20048;-67
2022/01/31 11:56:08;;;;;;;5.40;3.60;;;;;;;3.36;53.78;97882.91;5085834;28;20094;-67
2022/01/31 11:58:45;;;;;;;7.57;3.47;;;;;;;4.53;53.94;98064.88;5085365;28;20089;-67
2022/01/31 12:01:19;;;;;;;5.15;2.78;;;;;;;3.92;53.85;97959.59;5086136;28;20044;-66
2022/01/31 12:03:54;;;;;;;5.60;2.90;;;;;;;4.12;53.85;97973.38;5085258;28;20357;-67
2022/01/31 12:06:29;;;;;;;7.30;3.55;;;;;;;4.77;53.79;98037.34;5085639;28;20090;-67
2022/01/31 12:09:06;;;;;;;;;;;;;;;4.81;54.61;98040.66;5086396;28;20048;-67
2022/01/31 12:11:54;;;;;;;5.55;3.00;;;;;;;3.72;54.42;97885.44;5085842;28;20205;-67
2022/01/31 12:14:30;;;;;;;6.70;3.22;;;;;;;4.91;53.99;98013.03;5085614;28;20044;-67
2022/01/31 12:17:18;;;;;;;6.18;3.30;;;;;;;4.12;53.82;97883.38;5085213;28;20309;-67
2022/01/31 12:20:01;;;;;;;4.88;2.90;;;;;;;4.70;53.69;97961.66;5085393;28;20082;-67
2022/01/31 12:22:44;;;;;;;6.18;3.33;;;;;;;5.00;54.76;98006.44;5085839;28;20082;-67
2022/01/31 12:25:30;;;;;;;7.15;3.50;;;;;;;5.02;55.13;97991.44;5084634;28;20036;-66
2022/01/31 12:28:38;;;;;;;4.03;2.70;;;;;;;5.05;55.72;97992.13;5084414;28;20293;-67
2022/01/31 12:31:24;;;;;;;5.70;2.80;;;;;;;5.01;55.81;97992.38;5085373;28;20082;-67